createdAt,value
2022-12-31T00:01:39.966Z,12.90
2022-12-31T00:04:07.374Z,12.90
2022-12-31T00:06:35.179Z,12.90
2022-12-31T00:09:04.275Z,12.80
2022-12-31T00:11:32.021Z,12.80
2022-12-31T00:13:59.023Z,12.90
2022-12-31T00:16:28.472Z,12.80
2022-12-31T00:18:56.243Z,12.80
2022-12-31T00:21:23.272Z,12.90
2022-12-31T00:23:50.415Z,12.90
2022-12-31T00:26:21.129Z,12.90
2022-12-31T00:28:48.495Z,12.90
2022-12-31T00:31:18.692Z,12.90
2022-12-31T00:33:45.531Z,12.90
2022-12-31T00:36:19.875Z,12.90
2022-12-31T00:38:48.018Z,12.90
2022-12-31T00:41:15.309Z,12.90
2022-12-31T00:43:42.385Z,12.90
2022-12-31T00:46:09.364Z,12.90
2022-12-31T00:48:36.535Z,12.90
2022-12-31T00:51:04.360Z,13.00
2022-12-31T00:53:31.056Z,12.90
2022-12-31T00:56:01.932Z,12.90
2022-12-31T00:58:29.167Z,12.90
2022-12-31T01:00:56.034Z,12.90
2022-12-31T01:03:23.237Z,12.90
2022-12-31T01:05:50.371Z,13.00
2022-12-31T01:08:17.799Z,13.00
2022-12-31T01:11:08.394Z,12.90
2022-12-31T01:13:35.098Z,12.90
2022-12-31T01:16:09.287Z,12.90
2022-12-31T01:18:36.123Z,12.90
2022-12-31T01:21:03.987Z,12.90
2022-12-31T01:23:31.440Z,12.90
2022-12-31T01:26:03.335Z,12.90
2022-12-31T01:28:30.559Z,13.00
2022-12-31T01:30:57.629Z,13.00
2022-12-31T01:33:24.399Z,13.00
2022-12-31T01:35:52.306Z,12.90
2022-12-31T01:38:19.940Z,12.90
2022-12-31T01:40:46.713Z,12.90
2022-12-31T01:43:18.752Z,12.80
2022-12-31T01:45:52.563Z,12.80
2022-12-31T01:48:24.691Z,12.90
2022-12-31T01:50:52.935Z,12.90
2022-12-31T01:53:19.950Z,12.90
2022-12-31T01:56:14.548Z,12.90
2022-12-31T01:58:44.535Z,12.90
2022-12-31T02:01:13.151Z,12.90
2022-12-31T02:03:40.167Z,12.90
2022-12-31T02:06:12.929Z,13.00
2022-12-31T02:08:42.355Z,13.00
2022-12-31T02:11:39.949Z,13.00
2022-12-31T02:14:52.899Z,13.00
2022-12-31T02:17:29.037Z,12.90
2022-12-31T02:20:30.116Z,13.00
2022-12-31T02:23:18.653Z,13.00
2022-12-31T02:25:50.986Z,13.00
2022-12-31T02:28:24.029Z,13.00
2022-12-31T02:31:16.976Z,13.00
2022-12-31T02:33:57.610Z,13.10
2022-12-31T02:36:27.753Z,13.10
2022-12-31T02:38:55.048Z,13.20
2022-12-31T02:41:40.817Z,13.20
2022-12-31T02:44:27.967Z,13.10
2022-12-31T02:47:11.899Z,13.20
2022-12-31T02:49:44.992Z,13.30
2022-12-31T02:52:41.357Z,13.30
2022-12-31T02:55:20.543Z,13.30
2022-12-31T02:57:58.479Z,13.30
2022-12-31T03:00:44.417Z,13.40
2022-12-31T03:03:11.923Z,13.40
2022-12-31T03:05:41.762Z,13.40
2022-12-31T03:08:08.735Z,13.40
2022-12-31T03:10:35.616Z,13.40
2022-12-31T03:13:02.759Z,13.50
2022-12-31T03:15:33.890Z,13.60
2022-12-31T03:18:16.030Z,13.60
2022-12-31T03:21:03.909Z,13.70
2022-12-31T03:23:34.199Z,13.60
2022-12-31T03:26:01.427Z,13.60
2022-12-31T03:28:29.767Z,13.60
2022-12-31T03:30:59.606Z,13.50
2022-12-31T03:33:30.050Z,13.60
2022-12-31T03:35:57.122Z,13.60
2022-12-31T03:38:24.234Z,13.70
2022-12-31T03:40:52.173Z,13.70
2022-12-31T03:43:20.268Z,13.70
2022-12-31T03:45:54.691Z,13.80
2022-12-31T03:48:23.043Z,13.80
2022-12-31T03:50:50.158Z,13.80
2022-12-31T03:53:17.263Z,13.90
2022-12-31T03:55:44.671Z,13.80
2022-12-31T03:58:11.728Z,13.90
2022-12-31T04:00:38.833Z,13.90
2022-12-31T04:03:06.931Z,13.80
2022-12-31T04:05:34.025Z,13.90
2022-12-31T04:08:03.088Z,13.90
2022-12-31T04:10:30.186Z,13.90
2022-12-31T04:13:00.322Z,14.00
2022-12-31T04:15:27.632Z,14.10
2022-12-31T04:17:54.619Z,14.00
2022-12-31T04:20:21.278Z,14.00
2022-12-31T04:22:49.554Z,14.10
2022-12-31T04:25:16.301Z,14.00
2022-12-31T04:27:44.504Z,14.10
2022-12-31T04:30:13.680Z,14.20
2022-12-31T04:32:40.683Z,14.20
2022-12-31T04:35:08.320Z,14.20
2022-12-31T04:37:35.393Z,14.20
2022-12-31T04:40:06.138Z,14.20
2022-12-31T04:42:34.420Z,14.20
2022-12-31T04:45:01.487Z,14.20
2022-12-31T04:47:28.189Z,14.20
2022-12-31T04:49:55.539Z,14.30
2022-12-31T04:52:22.812Z,14.30
2022-12-31T04:54:49.965Z,14.20
2022-12-31T04:57:17.001Z,14.20
2022-12-31T04:59:44.658Z,14.30
2022-12-31T05:02:12.156Z,14.30
2022-12-31T05:04:39.465Z,14.30
2022-12-31T05:07:06.484Z,14.30
2022-12-31T05:09:34.082Z,14.30
2022-12-31T05:12:01.154Z,14.30
2022-12-31T05:14:28.481Z,14.30
2022-12-31T05:16:55.198Z,14.30
2022-12-31T05:19:22.289Z,14.20
2022-12-31T05:22:09.378Z,14.20
2022-12-31T05:24:36.394Z,14.20
2022-12-31T05:27:03.444Z,14.20
2022-12-31T05:29:30.516Z,14.30
2022-12-31T05:31:57.735Z,14.30
2022-12-31T05:34:25.196Z,14.40
2022-12-31T05:36:52.608Z,14.50
2022-12-31T05:39:19.298Z,14.40
2022-12-31T05:41:46.394Z,14.40
2022-12-31T05:44:14.242Z,14.30
2022-12-31T05:46:41.505Z,14.30
2022-12-31T05:49:08.614Z,14.40
2022-12-31T05:51:36.023Z,14.40
2022-12-31T05:54:03.231Z,14.40
2022-12-31T05:56:30.252Z,14.40
2022-12-31T05:58:57.322Z,14.30
2022-12-31T06:01:24.046Z,14.20
2022-12-31T06:03:51.260Z,14.20
2022-12-31T06:06:18.479Z,14.20
2022-12-31T06:08:49.290Z,14.10
2022-12-31T06:11:16.466Z,14.10
2022-12-31T06:13:44.251Z,14.00
2022-12-31T06:16:12.216Z,14.00
2022-12-31T06:18:39.863Z,14.00
2022-12-31T06:21:06.912Z,14.00
2022-12-31T06:23:33.980Z,13.90
2022-12-31T06:26:08.343Z,13.90
2022-12-31T06:28:35.192Z,13.90
2022-12-31T06:31:06.796Z,13.80
2022-12-31T06:33:34.032Z,13.80
2022-12-31T06:36:03.472Z,13.80
2022-12-31T06:38:31.479Z,13.80
2022-12-31T06:40:58.239Z,13.90
2022-12-31T06:43:26.395Z,13.90
2022-12-31T06:45:53.444Z,13.80
2022-12-31T06:48:20.999Z,13.80
2022-12-31T06:50:48.569Z,13.90
2022-12-31T06:53:16.215Z,13.90
2022-12-31T06:55:44.302Z,14.00
2022-12-31T06:58:12.974Z,13.90
2022-12-31T07:01:24.399Z,13.90
2022-12-31T07:04:09.724Z,13.90
2022-12-31T07:07:02.729Z,13.90
2022-12-31T07:09:45.628Z,13.80
2022-12-31T07:12:30.047Z,13.90
2022-12-31T07:15:36.908Z,13.90
2022-12-31T07:18:11.903Z,13.90
2022-12-31T07:20:39.861Z,14.00
2022-12-31T07:23:08.101Z,14.00
2022-12-31T07:25:35.910Z,14.00
2022-12-31T07:28:20.762Z,14.10
2022-12-31T07:31:05.116Z,14.10
2022-12-31T07:33:54.061Z,14.00
2022-12-31T07:36:37.505Z,14.00
2022-12-31T07:39:14.897Z,14.00
2022-12-31T07:41:45.604Z,14.00
2022-12-31T07:44:18.252Z,14.00
2022-12-31T07:46:55.970Z,14.00
2022-12-31T07:49:26.500Z,14.00
2022-12-31T07:51:56.781Z,14.00
2022-12-31T07:54:26.667Z,14.10
2022-12-31T07:56:55.553Z,14.10
2022-12-31T07:59:58.112Z,14.10
2022-12-31T08:02:55.080Z,14.10
2022-12-31T08:06:02.458Z,14.10
2022-12-31T08:08:36.481Z,14.10
2022-12-31T08:11:13.017Z,14.10
2022-12-31T08:13:40.775Z,14.20
2022-12-31T08:16:10.993Z,14.20
2022-12-31T08:18:38.444Z,14.10
2022-12-31T08:21:18.327Z,14.10
2022-12-31T08:24:40.473Z,14.20
2022-12-31T08:27:43.406Z,14.30
2022-12-31T08:30:36.938Z,14.20
2022-12-31T08:33:29.922Z,14.20
2022-12-31T08:36:10.731Z,14.20
2022-12-31T08:38:53.100Z,14.20
2022-12-31T08:41:42.305Z,14.20
2022-12-31T08:44:15.968Z,14.30
2022-12-31T08:47:01.115Z,14.30
2022-12-31T08:49:32.284Z,14.20
2022-12-31T08:52:00.196Z,14.20
2022-12-31T08:54:37.210Z,14.30
2022-12-31T08:57:31.163Z,14.20
2022-12-31T09:00:11.728Z,14.20
2022-12-31T09:02:51.733Z,14.30
2022-12-31T09:05:26.550Z,14.20
2022-12-31T09:07:57.604Z,14.30
2022-12-31T09:10:52.134Z,14.40
2022-12-31T09:14:08.215Z,14.40
2022-12-31T09:17:05.024Z,14.40
2022-12-31T09:19:35.751Z,14.40
2022-12-31T09:22:06.856Z,14.50
2022-12-31T09:24:36.819Z,14.50
2022-12-31T09:27:15.788Z,14.60
2022-12-31T09:29:52.097Z,14.60
2022-12-31T09:32:31.131Z,14.70
2022-12-31T09:35:13.308Z,14.80
2022-12-31T09:37:56.763Z,14.80
2022-12-31T09:40:23.477Z,14.90
2022-12-31T09:43:13.466Z,14.90
2022-12-31T09:45:55.878Z,14.80
2022-12-31T09:48:44.276Z,14.80
2022-12-31T09:51:31.031Z,14.90
2022-12-31T09:54:44.172Z,14.90
2022-12-31T09:57:39.452Z,15.00
2022-12-31T10:00:49.149Z,15.00
2022-12-31T10:07:18.083Z,14.90
2022-12-31T10:10:27.415Z,15.00
2022-12-31T10:13:34.180Z,15.00
2022-12-31T10:16:06.185Z,15.00
2022-12-31T10:19:08.940Z,15.10
2022-12-31T10:25:04.552Z,15.30
2022-12-31T10:28:06.954Z,15.40
2022-12-31T10:30:36.811Z,15.40
2022-12-31T10:33:10.759Z,15.40
2022-12-31T10:36:10.187Z,15.40
2022-12-31T10:38:47.574Z,15.40
2022-12-31T10:41:52.031Z,15.30
2022-12-31T10:44:50.588Z,15.40
2022-12-31T10:47:48.349Z,15.50
2022-12-31T10:50:50.603Z,15.70
2022-12-31T10:53:36.122Z,15.70
2022-12-31T10:56:32.280Z,15.70
2022-12-31T10:59:07.812Z,15.60
2022-12-31T11:01:45.216Z,15.60
2022-12-31T11:04:52.306Z,15.60
2022-12-31T11:07:55.173Z,15.60
2022-12-31T11:10:47.182Z,15.60
2022-12-31T11:14:03.217Z,15.50
2022-12-31T11:16:54.406Z,15.40
2022-12-31T11:19:33.714Z,15.30
2022-12-31T11:22:00.469Z,15.40
2022-12-31T11:24:34.430Z,15.50
2022-12-31T11:27:16.303Z,15.50
2022-12-31T11:30:16.289Z,15.50
2022-12-31T11:33:02.004Z,15.50
2022-12-31T11:36:08.685Z,15.60
2022-12-31T11:39:12.105Z,15.60
2022-12-31T11:41:45.116Z,15.70
2022-12-31T11:44:23.728Z,15.70
2022-12-31T11:46:57.573Z,15.80
2022-12-31T11:50:01.442Z,15.80
2022-12-31T11:52:39.325Z,15.80
2022-12-31T11:55:25.131Z,15.90
2022-12-31T11:58:04.953Z,16.00
2022-12-31T12:00:34.228Z,16.00
2022-12-31T12:03:05.631Z,15.90
2022-12-31T12:05:32.957Z,15.90
2022-12-31T12:07:59.698Z,15.80
2022-12-31T12:10:36.021Z,15.80
2022-12-31T12:13:17.900Z,15.90
2022-12-31T12:16:06.312Z,15.90
2022-12-31T12:18:42.535Z,16.00
2022-12-31T12:21:17.708Z,16.00
2022-12-31T12:24:17.136Z,16.00
2022-12-31T12:26:45.322Z,16.00
2022-12-31T12:29:12.620Z,16.00
2022-12-31T12:31:39.492Z,16.10
2022-12-31T12:34:07.019Z,16.10
2022-12-31T12:36:33.997Z,16.10
2022-12-31T12:39:07.471Z,16.10
2022-12-31T12:41:34.522Z,16.00
2022-12-31T12:44:09.947Z,16.00
2022-12-31T12:46:48.311Z,16.00
2022-12-31T12:49:32.236Z,16.10
2022-12-31T12:52:01.884Z,16.20
2022-12-31T12:54:53.577Z,16.10
2022-12-31T12:57:47.748Z,16.00
2022-12-31T13:00:29.522Z,16.00
2022-12-31T13:03:15.477Z,16.00
2022-12-31T13:06:14.006Z,16.00
2022-12-31T13:09:22.660Z,16.10
2022-12-31T13:12:08.342Z,16.00
2022-12-31T13:14:50.529Z,16.00
2022-12-31T13:17:35.158Z,16.00
2022-12-31T13:20:03.435Z,16.10
2022-12-31T13:22:51.362Z,16.10
2022-12-31T13:25:30.212Z,16.00
2022-12-31T13:27:59.930Z,15.80
2022-12-31T13:30:38.989Z,15.80
2022-12-31T13:33:22.067Z,15.70
2022-12-31T13:36:07.178Z,15.70
2022-12-31T13:38:49.868Z,15.70
2022-12-31T13:41:56.846Z,15.60
2022-12-31T13:44:31.215Z,15.70
2022-12-31T13:46:59.933Z,15.60
2022-12-31T13:50:14.270Z,15.60
2022-12-31T13:53:13.585Z,15.60
2022-12-31T13:55:42.819Z,15.60
2022-12-31T13:58:23.794Z,15.50
2022-12-31T14:00:56.605Z,15.40
2022-12-31T14:03:45.215Z,15.40
2022-12-31T14:06:34.512Z,15.40
2022-12-31T14:09:01.445Z,15.40
2022-12-31T14:11:58.717Z,15.30
2022-12-31T14:14:46.156Z,15.30
2022-12-31T14:17:31.451Z,15.30
2022-12-31T14:20:40.650Z,15.30
2022-12-31T14:23:17.274Z,15.20
2022-12-31T14:25:55.936Z,15.10
2022-12-31T14:28:50.170Z,15.20
2022-12-31T14:31:49.362Z,15.20
2022-12-31T14:34:26.085Z,15.20
2022-12-31T14:37:11.812Z,15.20
2022-12-31T14:39:57.937Z,15.20
2022-12-31T14:42:34.058Z,15.10
2022-12-31T14:45:18.283Z,15.10
2022-12-31T14:47:57.518Z,15.00
2022-12-31T14:50:54.550Z,15.00
2022-12-31T14:53:25.919Z,15.00
2022-12-31T14:56:00.973Z,14.90
2022-12-31T14:58:43.519Z,14.90
2022-12-31T15:01:17.534Z,14.90
2022-12-31T15:03:47.760Z,14.90
2022-12-31T15:06:23.719Z,14.80
2022-12-31T15:09:14.584Z,14.70
2022-12-31T15:11:57.297Z,14.70
2022-12-31T15:14:53.677Z,14.60
2022-12-31T15:17:39.757Z,14.60
2022-12-31T15:20:29.381Z,14.50
2022-12-31T15:23:01.955Z,14.40
2022-12-31T15:25:41.886Z,14.40
2022-12-31T15:28:27.908Z,14.30
2022-12-31T15:30:55.590Z,14.20
2022-12-31T15:33:38.872Z,14.20
2022-12-31T15:36:16.719Z,14.20
2022-12-31T15:38:43.642Z,14.20
2022-12-31T15:41:18.290Z,14.10
2022-12-31T15:44:29.911Z,14.20
2022-12-31T15:47:02.644Z,14.20
2022-12-31T15:49:32.979Z,14.20
2022-12-31T15:52:05.837Z,14.10
2022-12-31T15:54:44.253Z,14.10
2022-12-31T15:57:29.851Z,14.20
2022-12-31T16:00:00.956Z,14.10
2022-12-31T16:02:27.970Z,14.10
2022-12-31T16:04:55.130Z,14.10
2022-12-31T16:07:22.431Z,14.00
2022-12-31T16:09:57.323Z,14.00
2022-12-31T16:12:33.160Z,14.00
2022-12-31T16:15:02.099Z,14.00
2022-12-31T16:17:33.431Z,14.00
2022-12-31T16:20:01.214Z,14.00
2022-12-31T16:22:38.584Z,13.90
2022-12-31T16:27:53.736Z,13.90
2022-12-31T16:30:22.796Z,13.90
2022-12-31T16:32:50.051Z,13.80
2022-12-31T16:35:31.062Z,13.80
2022-12-31T16:38:11.625Z,13.80
2022-12-31T16:40:38.634Z,13.80
2022-12-31T16:43:25.500Z,13.80
2022-12-31T16:45:52.386Z,13.80
2022-12-31T16:48:19.394Z,13.70
2022-12-31T16:50:47.997Z,13.70
2022-12-31T16:53:17.591Z,13.70
2022-12-31T16:55:56.580Z,13.70
2022-12-31T16:58:31.009Z,13.70
2022-12-31T17:01:31.435Z,13.70
2022-12-31T17:03:58.794Z,13.70
2022-12-31T17:06:27.085Z,13.70
2022-12-31T17:08:57.937Z,13.70
2022-12-31T17:11:30.667Z,13.60
2022-12-31T17:14:11.599Z,13.60
2022-12-31T17:17:04.130Z,13.50
2022-12-31T17:19:41.433Z,13.50
2022-12-31T17:22:15.719Z,13.50
2022-12-31T17:24:42.653Z,13.50
2022-12-31T17:27:09.365Z,13.50
2022-12-31T17:29:36.280Z,13.50
2022-12-31T17:32:06.849Z,13.50
2022-12-31T17:34:48.105Z,13.60
2022-12-31T17:37:28.645Z,13.70
2022-12-31T17:40:24.499Z,13.60
2022-12-31T17:42:48.179Z,13.70
2022-12-31T17:45:22.439Z,13.70
2022-12-31T17:47:55.824Z,13.70
2022-12-31T17:50:24.844Z,13.70
2022-12-31T17:52:53.509Z,13.70
2022-12-31T17:55:20.193Z,13.60
2022-12-31T17:57:54.442Z,13.70
2022-12-31T18:00:26.702Z,13.70
2022-12-31T18:02:56.559Z,13.70
2022-12-31T18:05:23.727Z,13.60
2022-12-31T18:07:50.528Z,13.60
2022-12-31T18:10:19.038Z,13.60
2022-12-31T18:12:46.484Z,13.70
2022-12-31T18:15:17.835Z,13.70
2022-12-31T18:17:47.974Z,13.70
2022-12-31T18:20:21.314Z,13.60
2022-12-31T18:22:48.048Z,13.50
2022-12-31T18:25:18.257Z,13.50
2022-12-31T18:27:56.836Z,13.60
2022-12-31T18:30:28.198Z,13.60
2022-12-31T18:32:55.752Z,13.60
2022-12-31T18:38:13.308Z,13.60
2022-12-31T18:40:42.859Z,13.60
2022-12-31T18:43:16.827Z,13.60
2022-12-31T18:45:44.309Z,13.60
2022-12-31T18:48:11.402Z,13.60
2022-12-31T18:50:38.076Z,13.50
2022-12-31T18:53:05.005Z,13.60
2022-12-31T18:55:41.112Z,13.60
2022-12-31T18:58:08.200Z,13.60
2022-12-31T19:00:35.071Z,13.60
2022-12-31T19:03:05.548Z,13.60
2022-12-31T19:05:33.300Z,13.50
2022-12-31T19:08:00.550Z,13.60
2022-12-31T19:10:30.396Z,13.60
2022-12-31T19:12:57.239Z,13.50
2022-12-31T19:15:29.424Z,13.60
2022-12-31T19:17:57.290Z,13.50
2022-12-31T19:20:26.553Z,13.70
2022-12-31T19:22:53.346Z,13.70
2022-12-31T19:25:24.791Z,13.60
2022-12-31T19:27:51.751Z,13.60
2022-12-31T19:30:23.832Z,13.60
2022-12-31T19:32:52.918Z,13.60
2022-12-31T19:35:19.917Z,13.60
2022-12-31T19:37:47.901Z,13.70
2022-12-31T19:40:28.405Z,13.80
2022-12-31T19:42:58.324Z,13.80
2022-12-31T19:45:28.860Z,13.80
2022-12-31T19:47:56.252Z,13.80
2022-12-31T19:50:24.807Z,13.80
2022-12-31T19:52:52.924Z,13.80
2022-12-31T19:55:20.773Z,13.80
2022-12-31T19:57:47.968Z,13.90
2022-12-31T20:00:16.480Z,13.80
2022-12-31T20:02:44.248Z,13.90
2022-12-31T20:05:11.647Z,13.80
2022-12-31T20:07:38.366Z,13.80
2022-12-31T20:10:05.875Z,13.80
2022-12-31T20:12:32.679Z,13.90
2022-12-31T20:14:59.428Z,13.90
2022-12-31T20:17:26.329Z,13.90
2022-12-31T20:19:53.172Z,13.80
2022-12-31T20:22:19.985Z,13.80
2022-12-31T20:24:46.736Z,13.70
2022-12-31T20:27:18.426Z,13.70
2022-12-31T20:29:45.747Z,13.70
2022-12-31T20:32:12.435Z,13.80
2022-12-31T20:34:39.279Z,13.70
2022-12-31T20:37:05.934Z,13.80
2022-12-31T20:39:32.723Z,13.70
2022-12-31T20:41:59.580Z,13.70
2022-12-31T20:44:26.466Z,13.80
2022-12-31T20:46:53.254Z,13.70
2022-12-31T20:49:31.342Z,13.70
2022-12-31T20:52:06.987Z,13.70
2022-12-31T20:54:33.715Z,13.70
2022-12-31T20:57:00.508Z,13.70
2022-12-31T20:59:27.648Z,13.60
2022-12-31T21:04:41.399Z,13.50
2022-12-31T21:07:08.266Z,13.60
2022-12-31T21:09:35.070Z,13.60
2022-12-31T21:12:20.175Z,13.60
2022-12-31T21:14:47.012Z,13.60
2022-12-31T21:17:13.757Z,13.60
2022-12-31T21:19:40.534Z,13.60
2022-12-31T21:22:07.350Z,13.50
2022-12-31T21:24:34.033Z,13.50
2022-12-31T21:27:00.816Z,13.50
2022-12-31T21:29:32.630Z,13.50
2022-12-31T21:32:01.144Z,13.50
2022-12-31T21:34:27.985Z,13.50
2022-12-31T21:36:54.820Z,13.50
2022-12-31T21:39:21.613Z,13.40
2022-12-31T21:41:51.047Z,13.30
2022-12-31T21:44:22.336Z,13.30
2022-12-31T21:47:24.811Z,13.30
2022-12-31T21:49:36.703Z,13.20
2022-12-31T21:52:22.445Z,13.10
2022-12-31T21:55:07.552Z,13.20
2022-12-31T21:57:51.852Z,13.20
2022-12-31T22:00:42.841Z,13.20
2022-12-31T22:03:27.579Z,13.10
2022-12-31T22:05:58.984Z,13.20
2022-12-31T22:08:25.979Z,13.20
2022-12-31T22:10:53.208Z,13.10
2022-12-31T22:13:20.070Z,13.10
2022-12-31T22:15:48.474Z,13.10
2022-12-31T22:18:15.751Z,13.10
2022-12-31T22:20:42.518Z,13.00
2022-12-31T22:23:09.250Z,12.90
2022-12-31T22:25:36.764Z,12.90
2022-12-31T22:28:36.628Z,12.90
2022-12-31T22:30:50.760Z,12.80
2022-12-31T22:33:17.604Z,12.70
2022-12-31T22:35:44.381Z,12.70
2022-12-31T22:38:12.295Z,12.70
2022-12-31T22:40:39.362Z,12.70
2022-12-31T22:43:06.167Z,12.70
2022-12-31T22:45:32.857Z,12.60
2022-12-31T22:47:59.545Z,12.50
2022-12-31T22:50:26.449Z,12.60
2022-12-31T22:52:53.159Z,12.60
2022-12-31T22:55:19.905Z,12.60
2022-12-31T22:57:46.712Z,12.70
2022-12-31T23:00:13.929Z,12.70
2022-12-31T23:02:42.330Z,12.60
2022-12-31T23:05:15.153Z,12.60
2022-12-31T23:07:42.779Z,12.60
2022-12-31T23:10:28.884Z,12.60
2022-12-31T23:12:55.585Z,12.60
2022-12-31T23:15:40.702Z,12.60
2022-12-31T23:18:25.822Z,12.50
2022-12-31T23:21:11.123Z,12.60
2022-12-31T23:23:37.953Z,12.70
2022-12-31T23:26:04.813Z,12.60
2022-12-31T23:28:31.547Z,12.60
2022-12-31T23:30:58.284Z,12.60
2022-12-31T23:33:25.691Z,12.60
2022-12-31T23:36:05.215Z,12.50
2022-12-31T23:38:32.084Z,12.60
2022-12-31T23:40:58.779Z,12.60
2022-12-31T23:43:25.551Z,12.60
2022-12-31T23:45:52.528Z,12.60
2022-12-31T23:48:19.378Z,12.60
2022-12-31T23:50:53.003Z,12.60
2022-12-31T23:53:21.457Z,12.60
2022-12-31T23:55:48.146Z,12.60
2022-12-31T23:58:15.153Z,12.60
